Terminal Aerodrome Forecast
Issued by NWS

Current Version | Previous Version | Text Only | Print | Product List | Glossary On
Versions: 1 2 3 4 5 6 7 8 9 10 11 12 13
000
FTUS42 KMLB 242320
TAFTIX
TAF
KTIX 242320Z 2500/2524 12008KT P6SM SCT025
     FM250300 16003KT P6SM SKC
     FM251400 14008KT P6SM VCSH SCT030 BKN050
      TEMPO 2515/2519 5SM SHRA BKN025 OVC050
     FM252000 12010KT P6SM SCT030 BKN100=

USA.gov is the U.S. government's official web portal to all federal, state and local government web resources and services.